Time;durP1;ratioP1;P1;durP2;ratioP2;P2;SDS_P1;SDS_P2;PMS_P1;PMS_P2;Temp;Humidity;BMP_temperature;BMP_pressure;BME280_temperature;BME280_humidity;BME280_pressure;Samples;Min_cycle;Max_cycle;Signal;HPM_P1;HPM_P2
2023/06/28 00:01:02;;;;;;;3.50;3.07;;;;;;;24.00;39.83;98881.91;6972758;28;20219;-84
2023/06/28 00:04:23;;;;;;;4.23;2.40;;;;;;;23.84;39.81;98859.16;6973066;28;20225;-84
2023/06/28 00:07:44;;;;;;;3.23;2.43;;;;;;;24.13;39.19;98865.50;6972606;28;20229;-84
2023/06/28 00:11:06;;;;;;;2.70;2.40;;;;;;;24.01;39.52;98865.09;6972555;28;20212;-84
2023/06/28 00:14:27;;;;;;;3.23;2.53;;;;;;;24.06;39.81;98881.56;6971786;28;20222;-84
2023/06/28 00:17:50;;;;;;;4.10;2.60;;;;;;;24.07;39.61;98894.22;6971668;28;20225;-85
2023/06/28 00:21:13;;;;;;;5.70;2.50;;;;;;;23.70;40.29;98877.44;6972770;28;20275;-84
2023/06/28 00:24:34;;;;;;;3.20;2.80;;;;;;;23.70;40.85;98893.13;6971266;28;20343;-84
2023/06/28 00:27:56;;;;;;;3.33;2.90;;;;;;;23.61;40.89;98903.13;6972271;28;20281;-83
2023/06/28 00:31:17;;;;;;;4.03;2.87;;;;;;;23.52;41.08;98904.84;6972352;28;20269;-83
2023/06/28 00:34:41;;;;;;;2.77;2.30;;;;;;;23.47;41.29;98897.44;6970714;28;20286;-83
2023/06/28 00:38:03;;;;;;;3.13;2.60;;;;;;;23.61;40.19;98903.94;6971873;28;20369;-83
2023/06/28 00:41:24;;;;;;;6.20;3.07;;;;;;;23.77;41.73;98912.94;6973566;28;20520;-83
2023/06/28 00:44:46;;;;;;;3.67;2.50;;;;;;;23.59;43.52;98880.59;6972664;28;20194;-83
2023/06/28 00:48:08;;;;;;;3.63;2.60;;;;;;;24.06;42.56;98922.88;6971301;28;20389;-83
2023/06/28 00:51:31;;;;;;;2.73;2.53;;;;;;;24.02;41.38;98897.03;6972539;28;20659;-84
2023/06/28 00:54:53;;;;;;;3.70;2.70;;;;;;;23.28;41.78;98827.69;6973358;28;20235;-83
2023/06/28 00:58:14;;;;;;;4.27;2.67;;;;;;;23.88;41.63;98936.53;6972499;28;20324;-83
2023/06/28 01:01:37;;;;;;;3.20;2.57;;;;;;;23.78;42.63;98940.16;6972085;28;20293;-83
2023/06/28 01:04:59;;;;;;;2.90;2.70;;;;;;;23.32;42.98;98903.06;6971894;28;20212;-83
2023/06/28 01:08:22;;;;;;;4.40;2.70;;;;;;;23.26;43.00;98941.91;6971857;28;20293;-83
2023/06/28 01:11:44;;;;;;;3.60;2.97;;;;;;;23.25;43.56;98943.81;6971908;28;20210;-83
2023/06/28 01:15:07;;;;;;;3.83;2.70;;;;;;;23.02;41.19;98852.88;6971566;28;20281;-84
2023/06/28 01:18:29;;;;;;;2.77;2.47;;;;;;;23.57;41.20;98940.59;6970917;28;20227;-83
2023/06/28 01:21:53;;;;;;;4.77;2.40;;;;;;;23.46;41.42;98947.25;6971383;28;20344;-83
2023/06/28 01:25:16;;;;;;;3.27;2.60;;;;;;;23.70;41.22;98951.78;6971304;28;20206;-84
2023/06/28 01:28:38;;;;;;;3.53;2.53;;;;;;;23.54;41.26;98950.25;6970119;28;20219;-85
2023/06/28 01:31:59;;;;;;;3.40;2.60;;;;;;;23.50;40.91;98940.09;6970664;28;20554;-84
2023/06/28 01:35:20;;;;;;;2.60;2.40;;;;;;;23.68;40.41;98943.00;6968764;28;20278;-85
2023/06/28 01:38:42;;;;;;;2.60;2.40;;;;;;;23.62;40.89;98952.41;6969934;28;20276;-84
2023/06/28 01:42:06;;;;;;;4.53;2.83;;;;;;;23.41;42.55;98871.06;6970441;28;20221;-85
2023/06/28 01:45:27;;;;;;;4.13;2.90;;;;;;;23.74;43.42;98946.53;6969337;28;20592;-85
2023/06/28 01:48:49;;;;;;;2.87;2.60;;;;;;;23.50;44.54;98943.69;6970080;28;20288;-84
2023/06/28 01:52:11;;;;;;;8.87;3.40;;;;;;;23.48;43.85;98956.09;6970277;28;20241;-84
2023/06/28 01:55:32;;;;;;;6.43;2.60;;;;;;;23.54;40.86;98947.50;6969392;28;20236;-85
2023/06/28 01:58:55;;;;;;;4.97;2.50;;;;;;;23.57;42.31;98954.34;6969830;28;20212;-83
2023/06/28 02:02:16;;;;;;;7.00;3.13;;;;;;;23.55;43.62;98926.31;6969539;28;20204;-84
2023/06/28 02:05:39;;;;;;;7.63;2.90;;;;;;;23.44;42.14;98928.31;6968968;28;20204;-85
2023/06/28 02:09:01;;;;;;;5.80;2.90;;;;;;;23.46;42.59;98926.09;6967141;28;20803;-83
2023/06/28 02:12:22;;;;;;;3.00;2.67;;;;;;;23.28;43.34;98936.91;6969399;28;20205;-84
2023/06/28 02:15:45;;;;;;;6.17;3.00;;;;;;;23.00;45.04;98940.31;6961542;28;20683;-84
2023/06/28 02:19:06;;;;;;;6.20;3.33;;;;;;;22.96;45.26;98948.31;6942359;28;20613;-84
2023/06/28 02:22:28;;;;;;;3.87;2.97;;;;;;;23.05;45.24;98937.56;6942551;28;20207;-84
2023/06/28 02:25:49;;;;;;;7.63;3.60;;;;;;;22.32;45.77;98939.16;6941080;28;20640;-84
2023/06/28 02:29:11;;;;;;;4.23;2.83;;;;;;;22.60;45.06;98926.75;6959457;28;20200;-84
2023/06/28 02:32:34;;;;;;;3.10;2.77;;;;;;;22.65;44.68;98941.28;6967776;28;20301;-85
2023/06/28 02:35:55;;;;;;;5.93;2.70;;;;;;;22.66;44.93;98939.38;6968483;28;20658;-84
2023/06/28 02:39:17;;;;;;;3.97;2.83;;;;;;;22.70;45.28;98937.69;6967701;28;20204;-84
2023/06/28 02:42:38;;;;;;;6.03;2.70;;;;;;;22.75;45.30;98932.19;6969150;28;20237;-84
2023/06/28 02:46:00;;;;;;;5.50;2.93;;;;;;;22.74;44.83;98936.03;6970240;28;20306;-85
2023/06/28 02:49:23;;;;;;;4.10;2.73;;;;;;;22.76;45.12;98942.06;6974856;28;20237;-84
2023/06/28 02:52:45;;;;;;;3.77;2.77;;;;;;;22.92;44.77;98929.91;6975040;28;20205;-84
2023/06/28 02:56:07;;;;;;;6.20;3.13;;;;;;;22.98;44.47;98934.28;6974452;28;20233;-84
2023/06/28 02:59:28;;;;;;;5.33;2.83;;;;;;;22.93;43.76;98935.13;6975792;28;20576;-84
2023/06/28 03:02:50;;;;;;;3.53;2.63;;;;;;;23.01;43.20;98933.75;6974542;28;20248;-84
2023/06/28 03:06:12;;;;;;;4.40;2.57;;;;;;;23.02;43.30;98935.38;6973963;28;20226;-84
2023/06/28 03:09:34;;;;;;;5.70;3.23;;;;;;;22.92;43.62;98936.25;6974574;28;20291;-84
2023/06/28 03:12:55;;;;;;;3.67;2.57;;;;;;;22.91;43.81;98936.53;6974504;28;20207;-84
2023/06/28 03:16:17;;;;;;;6.13;2.80;;;;;;;22.69;44.12;98925.06;6973709;28;20234;-84
2023/06/28 03:19:38;;;;;;;4.50;2.67;;;;;;;22.56;43.24;98929.22;6974688;28;20204;-84
2023/06/28 03:23:03;;;;;;;7.30;2.87;;;;;;;22.54;43.18;98939.66;6974588;28;20207;-84
2023/06/28 03:26:24;;;;;;;3.43;2.67;;;;;;;22.45;43.18;98933.09;6973312;28;20236;-84
2023/06/28 03:29:46;;;;;;;2.63;2.40;;;;;;;22.66;42.98;98933.88;6974794;28;20204;-83
2023/06/28 03:33:07;;;;;;;2.87;2.63;;;;;;;21.84;42.63;98824.41;6974277;28;20211;-84
2023/06/28 03:36:29;;;;;;;3.30;2.50;;;;;;;22.52;42.84;98932.78;6975755;28;20228;-83
2023/06/28 03:39:52;;;;;;;7.27;2.67;;;;;;;22.73;42.13;98921.44;6975671;28;20217;-83
2023/06/28 03:43:14;;;;;;;3.07;2.40;;;;;;;22.66;42.08;98929.19;6976660;28;20270;-83
2023/06/28 03:46:35;;;;;;;3.63;2.70;;;;;;;22.71;41.71;98925.63;6946830;28;20240;-83
2023/06/28 03:49:57;;;;;;;5.67;2.80;;;;;;;22.60;42.16;98927.56;6947803;28;20737;-83
2023/06/28 03:53:18;;;;;;;3.33;2.63;;;;;;;22.13;43.61;98918.03;6947622;28;20300;-82
2023/06/28 03:56:41;;;;;;;3.93;2.57;;;;;;;22.58;42.56;98931.69;6966942;28;20276;-83
2023/06/28 04:00:07;;;;;;;3.90;2.90;;;;;;;22.46;42.64;98928.41;6973629;28;20302;-82
2023/06/28 04:03:29;;;;;;;3.97;2.80;;;;;;;22.00;43.86;98933.13;6972213;28;20196;-83
2023/06/28 04:06:50;;;;;;;3.07;2.77;;;;;;;22.04;43.65;98926.00;6972211;28;20228;-83
2023/06/28 04:10:12;;;;;;;4.80;3.07;;;;;;;21.55;45.05;98922.06;6972479;28;20343;-83
2023/06/28 04:13:35;;;;;;;3.83;2.80;;;;;;;21.45;45.11;98940.47;6972424;28;20217;-83
2023/06/28 04:16:56;;;;;;;3.30;2.90;;;;;;;22.35;43.09;98930.34;6972650;28;20427;-83
2023/06/28 04:20:18;;;;;;;3.10;2.80;;;;;;;22.41;43.34;98937.47;6975650;28;20221;-83
2023/06/28 04:23:39;;;;;;;4.67;2.67;;;;;;;22.82;42.46;98932.69;6974440;28;20211;-83
2023/06/28 04:27:01;;;;;;;3.03;2.40;;;;;;;23.07;41.98;98935.38;6974018;28;20319;-83
2023/06/28 04:30:24;;;;;;;5.50;3.03;;;;;;;22.48;43.38;98910.53;6974584;28;20294;-83
2023/06/28 04:33:46;;;;;;;2.80;2.53;;;;;;;22.99;42.09;98935.94;6972436;28;20586;-82
2023/06/28 04:37:10;;;;;;;6.60;3.00;;;;;;;23.00;42.00;98943.06;6972981;28;20231;-83
2023/06/28 04:40:33;;;;;;;5.33;2.90;;;;;;;22.72;42.11;98944.56;6972890;28;20203;-83
2023/06/28 04:43:56;;;;;;;3.80;2.73;;;;;;;22.66;42.48;98940.19;6972943;28;20207;-83
2023/06/28 04:47:19;;;;;;;4.37;3.23;;;;;;;22.75;42.42;98943.16;6973891;28;20227;-84
2023/06/28 04:50:41;;;;;;;3.80;2.97;;;;;;;23.17;42.06;98922.41;6981012;28;20212;-86
2023/06/28 04:54:02;;;;;;;4.07;2.57;;;;;;;23.59;41.14;98936.44;6973512;28;20306;-85
2023/06/28 04:57:24;;;;;;;4.60;2.73;;;;;;;23.78;40.86;98942.91;6972511;28;20574;-85
2023/06/28 05:00:45;;;;;;;3.60;2.43;;;;;;;23.51;41.11;98933.47;6972841;28;20544;-85
2023/06/28 05:04:08;;;;;;;4.13;3.00;;;;;;;23.82;40.66;98945.91;6971227;28;20346;-84
2023/06/28 05:07:30;;;;;;;5.53;2.33;;;;;;;24.21;39.69;98933.78;6971274;28;20222;-85
2023/06/28 05:10:52;;;;;;;4.33;2.80;;;;;;;24.10;40.43;98945.16;6972726;28;20284;-85
2023/06/28 05:14:13;;;;;;;4.47;2.97;;;;;;;24.15;40.50;98931.34;6974061;28;20702;-85
2023/06/28 05:17:35;;;;;;;5.97;3.27;;;;;;;24.31;39.74;98946.66;6972914;28;20296;-85
2023/06/28 05:20:57;;;;;;;5.47;2.83;;;;;;;24.23;40.67;98942.56;6973765;28;20206;-85
2023/06/28 05:24:20;;;;;;;2.80;2.43;;;;;;;24.25;40.02;98928.50;6973910;28;20730;-85
2023/06/28 05:27:41;;;;;;;4.70;2.83;;;;;;;24.11;40.77;98941.31;6974013;28;20228;-85
2023/06/28 05:31:03;;;;;;;4.97;2.83;;;;;;;23.66;41.70;98942.44;6948716;28;20212;-85
2023/06/28 05:34:26;;;;;;;5.93;3.07;;;;;;;23.56;41.56;98894.91;6965778;28;20320;-83
2023/06/28 05:37:48;;;;;;;3.47;2.77;;;;;;;24.26;40.48;98941.19;6971506;28;20364;-84
2023/06/28 05:41:17;;;;;;;4.80;2.80;;;;;;;24.32;40.38;98942.78;6972418;28;20296;-84
2023/06/28 05:44:39;;;;;;;4.80;3.00;;;;;;;23.81;40.75;98941.53;6970830;28;20259;-85
2023/06/28 05:48:00;;;;;;;7.30;3.00;;;;;;;24.03;40.57;98929.00;6972511;28;20335;-86
2023/06/28 05:51:22;;;;;;;4.90;2.50;;;;;;;24.43;39.91;98936.84;6976028;28;20300;-83
2023/06/28 05:54:44;;;;;;;5.07;2.87;;;;;;;24.55;40.06;98920.72;6975920;28;20231;-83
2023/06/28 05:58:06;;;;;;;6.70;2.80;;;;;;;24.45;39.76;98922.78;6981367;28;20310;-83
2023/06/28 06:01:29;;;;;;;4.03;3.00;;;;;;;24.17;40.01;98918.09;6993252;28;20200;-83
2023/06/28 06:04:50;;;;;;;5.30;2.97;;;;;;;24.23;39.13;98923.28;6975305;28;20207;-82
2023/06/28 06:08:11;;;;;;;4.53;2.60;;;;;;;24.62;39.35;98928.69;6968543;28;20710;-81
2023/06/28 06:11:36;;;;;;;7.33;3.10;;;;;;;24.86;39.26;98927.59;6969686;28;20206;-84
2023/06/28 06:14:59;;;;;;;3.57;2.57;;;;;;;24.91;38.66;98930.31;6955218;28;20240;-84
2023/06/28 06:18:20;;;;;;;4.50;2.80;;;;;;;24.03;40.03;98931.75;6942439;28;20223;-87
2023/06/28 06:21:42;;;;;;;4.60;2.80;;;;;;;24.74;38.45;98920.84;6949640;28;20291;-83
2023/06/28 06:25:04;;;;;;;5.93;2.93;;;;;;;24.83;38.12;98925.41;6975239;28;20615;-85
2023/06/28 06:28:27;;;;;;;5.50;2.90;;;;;;;24.48;38.66;98934.06;6974743;28;20361;-81
2023/06/28 06:31:48;;;;;;;4.20;3.00;;;;;;;24.71;38.05;98921.44;6975146;28;20762;-80
2023/06/28 06:35:10;;;;;;;4.63;2.57;;;;;;;24.70;37.54;98928.88;6970532;28;20226;-80
2023/06/28 06:38:31;;;;;;;7.10;2.83;;;;;;;24.85;38.22;98928.72;6974341;28;20233;-80
2023/06/28 06:41:53;;;;;;;3.63;2.67;;;;;;;24.96;37.77;98932.16;6975550;28;20336;-82
2023/06/28 06:45:19;;;;;;;4.33;2.40;;;;;;;24.89;38.46;98924.22;6975283;28;20247;-81
2023/06/28 06:48:41;;;;;;;4.23;2.70;;;;;;;24.40;39.46;98928.34;6981428;28;20230;-82
2023/06/28 06:52:02;;;;;;;3.73;2.60;;;;;;;24.22;39.77;98954.72;6975126;28;20201;-81
2023/06/28 06:55:24;;;;;;;4.07;2.70;;;;;;;24.47;39.35;98943.44;6974925;28;20229;-81
2023/06/28 06:58:45;;;;;;;6.97;2.93;;;;;;;24.34;38.66;98952.41;6974535;28;20223;-81
2023/06/28 07:02:08;;;;;;;5.40;2.93;;;;;;;24.66;37.99;98944.34;6974587;28;20610;-81
2023/06/28 07:05:30;;;;;;;4.97;2.67;;;;;;;24.63;37.88;98946.88;6973854;28;20202;-82
2023/06/28 07:08:51;;;;;;;6.67;2.70;;;;;;;24.27;38.60;98957.44;6973830;28;20203;-84
2023/06/28 07:12:13;;;;;;;6.67;3.37;;;;;;;24.37;37.90;98962.81;6973949;28;20209;-83
2023/06/28 07:15:34;;;;;;;4.67;2.70;;;;;;;24.95;37.82;98958.13;6972464;28;20934;-81
2023/06/28 07:18:57;;;;;;;4.93;2.90;;;;;;;25.33;36.88;98959.84;6973549;28;20211;-82
2023/06/28 07:22:18;;;;;;;5.53;2.93;;;;;;;25.36;37.03;98962.03;6973340;28;20868;-82
2023/06/28 07:25:40;;;;;;;6.57;2.80;;;;;;;25.45;36.37;98951.97;6972771;28;20253;-83
2023/06/28 07:29:02;;;;;;;4.63;2.53;;;;;;;25.78;36.14;98962.78;6974100;28;20204;-82
2023/06/28 07:32:26;;;;;;;5.50;2.90;;;;;;;25.32;36.52;98970.06;6973697;28;20203;-83
2023/06/28 07:35:49;;;;;;;5.77;2.97;;;;;;;25.66;35.68;98965.16;6973906;28;20237;-82
2023/06/28 07:39:11;;;;;;;4.50;2.80;;;;;;;26.12;34.91;98968.09;6973868;28;20211;-82
2023/06/28 07:42:32;;;;;;;6.33;3.00;;;;;;;25.40;35.25;98969.44;6972560;28;20200;-83
2023/06/28 07:45:58;;;;;;;4.63;2.60;;;;;;;25.95;34.77;98976.91;6972333;28;20845;-82
2023/06/28 07:49:20;;;;;;;3.47;2.53;;;;;;;25.68;34.57;98965.72;6977102;28;20196;-83
2023/06/28 07:52:43;;;;;;;5.77;2.93;;;;;;;25.49;34.78;98975.09;6982493;28;20569;-82
2023/06/28 07:56:04;;;;;;;4.90;2.47;;;;;;;25.48;35.28;98976.22;6974165;28;20290;-82
2023/06/28 07:59:26;;;;;;;4.07;2.83;;;;;;;25.03;35.36;98930.69;6974195;28;20210;-81
2023/06/28 08:02:48;;;;;;;3.23;2.50;;;;;;;25.77;34.52;98952.06;6974510;28;20669;-83
2023/06/28 08:06:09;;;;;;;4.03;2.50;;;;;;;25.51;35.51;98968.16;6974058;28;20591;-83
2023/06/28 08:09:32;;;;;;;5.37;2.77;;;;;;;26.07;34.81;98968.19;6974553;28;20345;-82
2023/06/28 08:12:55;;;;;;;7.97;2.80;;;;;;;26.57;33.85;98959.84;6973458;28;20571;-83
2023/06/28 08:16:16;;;;;;;4.10;2.70;;;;;;;26.91;33.41;98953.94;6973151;28;20234;-82
2023/06/28 08:19:38;;;;;;;6.73;2.77;;;;;;;25.28;36.13;98968.19;6974732;28;20211;-83
2023/06/28 08:23:01;;;;;;;5.17;2.73;;;;;;;26.06;34.79;98967.34;6965029;28;20333;-83
2023/06/28 08:26:23;;;;;;;5.30;2.90;;;;;;;26.64;34.68;98960.25;6945873;28;20315;-83
2023/06/28 08:29:45;;;;;;;5.43;2.90;;;;;;;26.59;33.70;98962.28;6946337;28;20294;-82
2023/06/28 08:33:06;;;;;;;5.47;2.97;;;;;;;26.84;33.41;98943.25;6946901;28;20273;-83
2023/06/28 08:36:29;;;;;;;7.17;2.50;;;;;;;26.87;32.92;98922.47;6945589;28;20268;-83
2023/06/28 08:39:50;;;;;;;4.80;2.47;;;;;;;27.18;32.86;98951.22;6947761;28;20205;-82
2023/06/28 08:43:15;;;;;;;4.60;2.80;;;;;;;26.88;32.95;98913.84;6973523;28;20339;-81
2023/06/28 08:46:36;;;;;;;7.60;2.80;;;;;;;27.33;32.32;98948.94;6973348;28;20231;-82
2023/06/28 08:49:58;;;;;;;5.33;2.40;;;;;;;27.52;31.83;98937.69;6973075;28;20207;-83
2023/06/28 08:53:21;;;;;;;3.00;2.40;;;;;;;27.36;30.72;98951.06;6972367;28;20684;-86
2023/06/28 08:56:43;;;;;;;4.27;2.70;;;;;;;26.69;32.27;98932.50;6971407;28;20254;-83
2023/06/28 09:00:14;;;;;;;6.90;2.80;;;;;;;27.24;31.40;98952.75;6949716;28;20219;-84
2023/06/28 09:03:37;;;;;;;4.30;2.63;;;;;;;27.86;29.60;98949.94;6972050;28;20198;-84
2023/06/28 09:06:59;;;;;;;6.17;2.50;;;;;;;27.25;29.73;98938.56;6970493;28;20228;-85
2023/06/28 09:10:22;;;;;;;5.27;2.43;;;;;;;27.93;29.17;98944.78;6971699;28;20272;-85
2023/06/28 09:13:43;;;;;;;3.97;2.10;;;;;;;29.36;28.28;98942.31;6972805;28;20259;-82
2023/06/28 09:17:06;;;;;;;5.27;2.60;;;;;;;29.49;26.32;98877.44;6967334;28;20332;-83
2023/06/28 09:20:28;;;;;;;4.10;2.80;;;;;;;28.29;28.74;98903.94;6964139;28;20615;-86
2023/06/28 09:23:49;;;;;;;4.83;2.40;;;;;;;29.37;28.41;98930.06;6970970;28;20233;-86
2023/06/28 09:27:12;;;;;;;3.33;2.50;;;;;;;30.48;26.23;98901.06;6970151;28;20270;-86
2023/06/28 09:30:56;;;;;;;8.13;2.43;;;;;;;28.70;28.08;98932.25;6953565;28;20208;-86
2023/06/28 09:34:38;;;;;;;4.87;2.53;;;;;;;29.06;27.89;98932.91;7049190;27;20559;-86
2023/06/28 09:38:06;;;;;;;3.93;2.23;;;;;;;28.23;28.91;98921.84;7027437;28;20224;-86
2023/06/28 09:41:37;;;;;;;4.17;2.67;;;;;;;28.84;28.15;98921.84;7020741;28;20328;-87
2023/06/28 09:44:59;;;;;;;3.73;2.30;;;;;;;28.47;27.40;98874.34;7021436;28;20205;-87
2023/06/28 09:48:24;;;;;;;6.83;3.10;;;;;;;28.51;28.23;98916.97;7021665;28;20365;-85
2023/06/28 09:51:58;;;;;;;8.07;2.67;;;;;;;27.07;29.88;98925.63;7025493;28;20313;-86
2023/06/28 09:58:55;;;;;;;3.53;2.77;;;;;;;28.31;28.88;98909.97;7005774;28;20214;-87
2023/06/28 10:02:32;;;;;;;3.50;2.53;;;;;;;28.93;27.44;98888.56;6993871;28;20228;-87
2023/06/28 10:05:54;;;;;;;5.33;2.60;;;;;;;29.37;27.88;98907.81;6993844;28;20687;-87
2023/06/28 10:09:19;;;;;;;4.60;2.30;;;;;;;30.23;25.74;98915.06;6992758;28;20203;-87
2023/06/28 10:12:59;;;;;;;5.87;2.23;;;;;;;29.71;26.33;98919.81;6992141;28;20262;-87
2023/06/28 10:16:25;;;;;;;4.70;2.70;;;;;;;28.21;28.22;98879.75;6992228;28;20334;-88
2023/06/28 10:19:47;;;;;;;6.90;2.67;;;;;;;28.10;29.05;98913.59;6992839;28;20273;-87
2023/06/28 10:23:11;;;;;;;5.17;2.57;;;;;;;28.27;28.25;98885.97;6993577;28;20211;-87
2023/06/28 10:26:48;;;;;;;4.27;2.50;;;;;;;29.05;28.40;98905.44;7009841;28;20217;-86
2023/06/28 10:30:17;;;;;;;3.97;2.73;;;;;;;28.11;29.05;98913.28;7019914;28;20698;-87
2023/06/28 10:37:23;;;;;;;5.53;2.87;;;;;;;29.13;26.90;98788.03;7017236;28;20283;-87
2023/06/28 10:40:46;;;;;;;5.70;2.73;;;;;;;29.35;26.69;98858.13;7020057;28;20286;-87
2023/06/28 10:44:21;;;;;;;4.40;2.70;;;;;;;31.15;24.95;98898.34;7009275;28;20306;-86
2023/06/28 10:47:52;;;;;;;5.77;2.37;;;;;;;29.97;26.57;98864.19;6972838;28;20352;-87
2023/06/28 10:51:20;;;;;;;5.60;2.60;;;;;;;31.20;24.79;98887.06;6972985;28;20591;-86
2023/06/28 10:54:48;;;;;;;4.23;2.47;;;;;;;30.36;25.44;98859.22;6973561;28;20215;-87
2023/06/28 10:58:13;;;;;;;4.40;2.80;;;;;;;30.53;25.08;98884.19;6998446;28;20222;-87
2023/06/28 11:02:10;;;;;;;5.97;2.50;;;;;;;30.42;25.79;98880.16;6994510;28;20295;-87
2023/06/28 11:05:41;;;;;;;4.07;2.67;;;;;;;29.85;26.45;98884.31;7008744;28;20221;-87
2023/06/28 11:09:13;;;;;;;6.53;2.83;;;;;;;30.04;26.22;98872.84;7028658;28;20216;-88
2023/06/28 11:12:35;;;;;;;7.27;2.70;;;;;;;30.69;25.91;98885.31;7029134;28;20302;-85
2023/06/28 11:16:08;;;;;;;4.17;2.77;;;;;;;30.86;25.04;98876.91;7001440;28;20226;-86
2023/06/28 11:19:30;;;;;;;3.93;2.37;;;;;;;32.62;23.07;98876.09;6973948;28;20193;-87
2023/06/28 11:22:54;;;;;;;6.87;2.93;;;;;;;33.09;21.98;98854.97;6975118;28;20236;-86
2023/06/28 11:30:47;;;;;;;4.67;2.40;;;;;;;31.97;23.66;98860.19;6972505;28;20173;-87
2023/06/28 11:34:09;;;;;;;3.43;2.30;;;;;;;31.90;23.64;98878.66;6972194;28;20230;-88
2023/06/28 11:37:32;;;;;;;8.43;2.60;;;;;;;31.37;24.73;98875.78;6971086;28;20327;-87
2023/06/28 11:40:54;;;;;;;4.13;2.10;;;;;;;31.81;23.49;98873.16;6986835;28;20290;-86
2023/06/28 11:44:16;;;;;;;8.30;2.60;;;;;;;32.34;22.75;98875.94;6999386;28;20209;-86
2023/06/28 11:47:38;;;;;;;6.60;2.53;;;;;;;32.21;22.88;98853.88;6999215;28;20229;-86
2023/06/28 11:51:02;;;;;;;4.47;2.30;;;;;;;32.84;23.16;98884.06;6979073;28;20293;-85
2023/06/28 11:54:24;;;;;;;3.60;1.83;;;;;;;32.37;23.19;98880.81;6971749;28;20210;-85
2023/06/28 11:57:49;;;;;;;4.60;2.40;;;;;;;31.86;23.50;98856.22;6970501;28;20226;-86
2023/06/28 12:01:20;;;;;;;6.10;2.30;;;;;;;29.57;25.50;98824.66;6971475;28;20745;-85
2023/06/28 12:04:55;;;;;;;5.00;2.00;;;;;;;32.34;23.33;98883.47;6971821;28;20196;-85
2023/06/28 12:08:16;;;;;;;4.43;2.30;;;;;;;32.65;22.95;98814.78;6971202;28;20702;-85
2023/06/28 12:11:49;;;;;;;5.77;2.40;;;;;;;31.89;23.19;98863.88;6973132;28;20259;-84
2023/06/28 12:15:14;;;;;;;4.67;1.90;;;;;;;31.13;23.92;98836.59;6972038;28;20190;-83
2023/06/28 12:18:57;;;;;;;3.60;2.10;;;;;;;31.19;23.91;98843.63;6971792;28;20688;-85
2023/06/28 12:22:18;;;;;;;3.37;1.93;;;;;;;30.78;24.59;98801.75;6971204;28;20191;-85
2023/06/28 12:25:43;;;;;;;5.13;2.10;;;;;;;31.33;23.59;98866.47;6970801;28;20211;-86
2023/06/28 12:29:06;;;;;;;6.73;2.20;;;;;;;30.61;23.99;98849.94;6971762;28;20612;-85
2023/06/28 12:32:30;;;;;;;4.20;2.37;;;;;;;31.54;24.12;98862.53;6971107;28;20686;-85
2023/06/28 12:35:53;;;;;;;2.87;2.13;;;;;;;31.12;24.60;98855.28;6973431;28;20264;-85
2023/06/28 12:39:21;;;;;;;4.87;2.30;;;;;;;32.22;23.12;98855.50;6998905;28;20693;-85
2023/06/28 12:42:43;;;;;;;2.47;2.07;;;;;;;32.05;23.33;98864.06;6998879;28;20208;-86
2023/06/28 12:46:05;;;;;;;3.43;1.90;;;;;;;30.63;24.85;98847.66;6997836;28;20394;-85
2023/06/28 12:49:37;;;;;;;4.57;2.23;;;;;;;32.05;22.51;98839.78;6998343;28;20205;-84
2023/06/28 12:52:58;;;;;;;3.53;2.10;;;;;;;29.69;25.23;98824.81;6998249;28;20217;-85
2023/06/28 12:56:20;;;;;;;4.53;2.30;;;;;;;30.60;24.60;98837.19;6991527;28;20688;-84
2023/06/28 12:59:42;;;;;;;3.23;2.00;;;;;;;31.45;23.60;98836.72;6998385;28;20213;-85
2023/06/28 13:03:04;;;;;;;4.37;2.03;;;;;;;31.49;24.17;98843.22;6998623;28;20279;-85
2023/06/28 13:06:27;;;;;;;2.73;1.93;;;;;;;31.73;22.93;98837.78;6997760;28;20240;-85
2023/06/28 13:09:49;;;;;;;3.77;2.10;;;;;;;32.05;22.85;98830.59;6994871;28;20274;-83
2023/06/28 13:13:10;;;;;;;4.53;2.17;;;;;;;33.34;21.17;98834.22;6970771;28;20222;-84
2023/06/28 13:16:32;;;;;;;3.43;2.00;;;;;;;32.55;22.08;98823.63;6970517;28;20265;-83
2023/06/28 13:19:53;;;;;;;2.87;1.80;;;;;;;32.39;21.37;98822.69;6970547;28;20206;-84
2023/06/28 13:23:16;;;;;;;4.67;1.80;;;;;;;32.25;21.98;98818.59;6971403;28;20262;-84
2023/06/28 13:26:38;;;;;;;3.37;1.63;;;;;;;31.84;22.35;98779.63;6970570;28;20779;-84
2023/06/28 13:29:59;;;;;;;1.93;1.43;;;;;;;32.19;21.85;98814.34;6970900;28;20206;-84
2023/06/28 13:33:23;;;;;;;2.07;1.57;;;;;;;31.91;22.38;98775.09;6970762;28;20350;-84
2023/06/28 13:36:47;;;;;;;2.33;1.77;;;;;;;32.66;21.57;98782.91;6969486;28;20236;-84
2023/06/28 13:40:11;;;;;;;2.47;1.53;;;;;;;31.76;22.77;98802.81;6970706;28;20182;-84
2023/06/28 13:43:32;;;;;;;2.37;1.70;;;;;;;31.82;22.75;98809.81;6971041;28;20674;-83
2023/06/28 13:46:54;;;;;;;3.40;1.90;;;;;;;30.93;23.23;98810.34;6971875;28;20221;-84
2023/06/28 13:50:16;;;;;;;3.33;1.57;;;;;;;31.06;22.73;98734.06;6970673;28;20250;-84
2023/06/28 13:53:37;;;;;;;4.97;1.77;;;;;;;31.10;22.60;98701.59;6970134;28;20360;-83
2023/06/28 13:57:04;;;;;;;2.63;1.60;;;;;;;32.60;21.59;98789.88;6970218;28;20725;-83
2023/06/28 14:00:25;;;;;;;1.40;1.30;;;;;;;32.38;21.80;98804.28;6970541;28;20267;-84
2023/06/28 14:03:47;;;;;;;2.30;1.50;;;;;;;32.92;20.52;98797.34;6970594;28;20256;-84
2023/06/28 14:07:09;;;;;;;2.87;1.57;;;;;;;31.91;21.94;98797.41;6969913;28;20360;-84
2023/06/28 14:10:31;;;;;;;1.93;1.63;;;;;;;32.08;22.40;98791.66;6969944;28;20308;-83
2023/06/28 14:14:00;;;;;;;2.33;1.27;;;;;;;32.53;21.12;98783.25;6969969;28;20279;-84
2023/06/28 14:17:21;;;;;;;2.57;1.63;;;;;;;31.59;23.00;98778.69;6969285;28;20230;-84
2023/06/28 14:20:43;;;;;;;2.20;1.80;;;;;;;31.08;22.93;98781.06;6975393;28;20749;-84
2023/06/28 14:24:05;;;;;;;3.07;1.80;;;;;;;31.83;21.80;98780.78;6975512;28;20668;-84
2023/06/28 14:27:26;;;;;;;2.73;1.60;;;;;;;31.91;21.88;98775.09;6975373;28;20704;-83
2023/06/28 14:30:49;;;;;;;2.17;1.40;;;;;;;32.31;21.29;98773.34;6975446;28;20777;-84
2023/06/28 14:34:11;;;;;;;3.43;1.87;;;;;;;32.11;22.26;98768.66;6974897;28;20444;-84
2023/06/28 14:37:32;;;;;;;4.07;1.70;;;;;;;31.85;21.90;98779.25;6974298;28;20290;-83
2023/06/28 14:40:54;;;;;;;2.87;1.63;;;;;;;31.52;22.05;98764.50;6975551;28;20197;-84
2023/06/28 14:44:15;;;;;;;3.37;1.83;;;;;;;31.89;22.54;98780.22;6975112;28;20217;-83
2023/06/28 14:47:39;;;;;;;3.43;1.90;;;;;;;32.45;21.99;98782.22;6977677;28;20368;-84
2023/06/28 14:51:00;;;;;;;2.10;1.90;;;;;;;31.63;22.66;98778.81;6977452;28;20232;-83
2023/06/28 14:54:22;;;;;;;2.20;1.97;;;;;;;31.74;22.44;98775.31;6977539;28;20716;-84
2023/06/28 14:57:43;;;;;;;3.20;1.97;;;;;;;30.22;24.34;98768.75;6977411;28;20317;-84
2023/06/28 15:01:05;;;;;;;2.60;1.83;;;;;;;30.48;24.01;98761.91;6977461;28;20658;-84
2023/06/28 15:04:27;;;;;;;1.80;1.60;;;;;;;30.51;23.88;98764.06;6978302;28;20348;-84
2023/06/28 15:07:50;;;;;;;3.80;1.90;;;;;;;30.07;24.26;98703.34;6976901;28;20366;-83
2023/06/28 15:11:11;;;;;;;3.63;1.90;;;;;;;31.37;23.19;98750.38;6978358;28;20846;-83
2023/06/28 15:14:36;;;;;;;4.37;1.80;;;;;;;32.07;22.93;98752.97;6982250;28;20321;-84
2023/06/28 15:17:57;;;;;;;8.40;2.10;;;;;;;30.70;24.02;98746.94;6991773;28;20565;-84
2023/06/28 15:21:20;;;;;;;4.03;1.70;;;;;;;31.76;23.35;98749.84;6979215;28;20281;-83
2023/06/28 15:24:42;;;;;;;3.10;2.10;;;;;;;32.32;23.05;98747.06;6977208;28;20270;-84
2023/06/28 15:28:03;;;;;;;2.57;1.80;;;;;;;32.04;22.99;98748.06;6976263;28;20230;-84
2023/06/28 15:31:26;;;;;;;2.93;1.90;;;;;;;31.78;22.17;98742.75;6976337;28;20203;-84
2023/06/28 15:34:47;;;;;;;4.53;2.27;;;;;;;31.90;22.66;98742.78;6975769;28;20252;-84
2023/06/28 15:38:10;;;;;;;6.50;2.17;;;;;;;31.99;22.52;98745.47;6975238;28;20267;-83
2023/06/28 15:41:32;;;;;;;2.93;1.90;;;;;;;31.87;22.49;98725.94;6975165;28;20202;-84
2023/06/28 15:44:53;;;;;;;5.87;2.03;;;;;;;31.78;22.80;98753.13;6975889;28;20683;-83
2023/06/28 15:48:16;;;;;;;3.67;1.83;;;;;;;31.68;22.84;98754.34;6978029;28;20361;-84
2023/06/28 15:51:37;;;;;;;2.60;2.10;;;;;;;31.42;22.46;98748.19;6975179;28;20686;-84
2023/06/28 15:55:00;;;;;;;2.63;1.80;;;;;;;31.06;23.97;98750.78;6974613;28;20260;-84
2023/06/28 15:58:22;;;;;;;2.23;2.00;;;;;;;31.19;24.04;98741.34;6974147;28;20220;-83
2023/06/28 16:01:44;;;;;;;1.93;1.80;;;;;;;31.49;23.25;98740.09;6974870;28;20209;-84
2023/06/28 16:05:06;;;;;;;5.13;1.93;;;;;;;31.74;22.80;98721.50;6975095;28;20229;-84
2023/06/28 16:08:27;;;;;;;3.80;1.70;;;;;;;31.13;23.24;98742.66;6984566;28;20790;-83